Weather at JFCR Cancer Institute Hospital Helipad

Public forecast

Using degrees Celsius for public forecast. Weather courtesy of forecast.io.

Closest aviation weather report (METAR) to JFCR Cancer Institute Hospital Helipad

Report is more than 2 hours old.

Closest report is Tokyo Heliport, 2.2 nm (4.0 km) E.

2023/09/29 07:00 (retrieved 4 hours ago)

RJTI 290700Z 12015KT 9999 FEW025 SCT070 27/21 Q1011

Closest aviation forecast (TAF) to JFCR Cancer Institute Hospital Helipad

Closest forecast is Tokyo Haneda International Airport, 5.0 nm (9.2 km) S.

2023/09/29 06:30 (retrieved 5 hours ago)

TAF RJTT 290505Z 2906/3012 14012KT 9999 FEW030 BECMG 2916/2918 04006KT BECMG 3000/3003 10006KT BECMG 3003/3006 18012KT TEMPO 3003/3006 TS FEW015 BKN030 FEW030CB